createdAt,value
2022-12-11T00:03:22.674Z,12.70
2022-12-11T00:07:24.140Z,12.57
2022-12-11T00:11:27.472Z,13.32
2022-12-11T00:15:29.280Z,14.57
2022-12-11T00:19:30.836Z,13.38
2022-12-11T00:23:34.791Z,14.55
2022-12-11T00:27:36.565Z,13.05
2022-12-11T00:31:38.120Z,12.88
2022-12-11T00:35:46.935Z,12.82
2022-12-11T00:39:50.626Z,13.70
2022-12-11T00:43:52.268Z,14.13
2022-12-11T00:47:54.774Z,14.10
2022-12-11T00:51:56.457Z,14.02
2022-12-11T00:55:57.932Z,13.50
2022-12-11T00:59:59.467Z,14.23
2022-12-11T01:04:00.884Z,12.63
2022-12-11T01:08:03.091Z,14.68
2022-12-11T01:12:04.802Z,14.70
2022-12-11T01:16:12.345Z,13.65
2022-12-11T01:20:13.867Z,13.50
2022-12-11T01:24:15.434Z,13.68
2022-12-11T01:28:16.901Z,12.90
2022-12-11T01:32:18.465Z,13.73
2022-12-11T01:36:22.208Z,12.82
2022-12-11T01:40:23.861Z,13.43
2022-12-11T01:44:26.475Z,13.05
2022-12-11T01:48:31.488Z,15.32
2022-12-11T01:52:33.536Z,12.55
2022-12-11T01:56:37.905Z,12.40
2022-12-11T02:00:39.405Z,13.65
2022-12-11T02:04:44.131Z,12.40
2022-12-11T02:08:45.587Z,12.95
2022-12-11T02:12:58.575Z,13.75
2022-12-11T02:21:33.555Z,13.32
2022-12-11T02:25:53.856Z,12.38
2022-12-11T02:29:55.447Z,12.63
2022-12-11T02:34:12.118Z,12.50
2022-12-11T02:38:27.028Z,11.02
2022-12-11T02:42:31.647Z,11.68
2022-12-11T02:46:36.687Z,12.55
2022-12-11T02:50:44.284Z,10.82
2022-12-11T02:54:47.583Z,12.85
2022-12-11T02:58:58.521Z,11.48
2022-12-11T03:03:01.415Z,11.68
2022-12-11T03:07:13.246Z,11.80
2022-12-11T03:11:14.899Z,10.90
2022-12-11T03:15:19.911Z,10.50
2022-12-11T03:19:36.094Z,9.75
2022-12-11T03:23:53.894Z,10.07
2022-12-11T03:28:07.959Z,9.85
2022-12-11T03:32:15.767Z,10.18
2022-12-11T03:36:45.778Z,11.18
2022-12-11T03:40:51.195Z,11.40
2022-12-11T03:44:56.690Z,11.02
2022-12-11T03:49:05.916Z,11.00
2022-12-11T03:53:08.031Z,10.95
2022-12-11T03:57:15.084Z,12.82
2022-12-11T04:01:16.786Z,10.52
2022-12-11T04:05:18.395Z,10.52
2022-12-11T04:09:19.907Z,10.82
2022-12-11T04:13:21.361Z,10.07
2022-12-11T04:17:41.549Z,11.25
2022-12-11T04:22:01.780Z,11.90
2022-12-11T04:26:08.717Z,10.45
2022-12-11T04:30:13.975Z,11.15
2022-12-11T04:34:15.608Z,11.10
2022-12-11T04:38:17.261Z,11.27
2022-12-11T04:42:18.977Z,9.70
2022-12-11T04:46:23.235Z,11.00
2022-12-11T04:50:25.858Z,10.90
2022-12-11T04:54:29.737Z,10.00
2022-12-11T04:58:31.373Z,9.88
2022-12-11T05:02:37.558Z,8.70
2022-12-11T05:06:39.074Z,7.80
2022-12-11T05:10:41.791Z,8.57
2022-12-11T05:14:45.405Z,8.85
2022-12-11T05:18:47.500Z,9.18
2022-12-11T05:22:48.990Z,9.55
2022-12-11T05:26:50.502Z,10.38
2022-12-11T05:30:56.890Z,10.45
2022-12-11T05:34:58.369Z,11.52
2022-12-11T05:39:01.254Z,10.63
2022-12-11T05:43:02.856Z,11.70
2022-12-11T05:47:04.401Z,10.75
2022-12-11T05:51:08.319Z,11.15
2022-12-11T05:55:10.170Z,11.32
2022-12-11T05:59:11.898Z,11.15
2022-12-11T06:03:13.773Z,9.65
2022-12-11T06:07:15.308Z,10.43
2022-12-11T06:11:22.320Z,9.60
2022-12-11T06:15:25.472Z,9.45
2022-12-11T06:19:28.864Z,8.60
2022-12-11T06:23:33.438Z,8.27
2022-12-11T06:27:35.210Z,8.50
2022-12-11T06:31:36.806Z,8.73
2022-12-11T06:35:42.022Z,7.78
2022-12-11T06:39:44.207Z,7.45
2022-12-11T06:43:45.778Z,7.50
2022-12-11T06:47:47.310Z,7.35
2022-12-11T06:51:49.511Z,7.65
2022-12-11T06:55:51.225Z,8.93
2022-12-11T06:59:52.874Z,7.72
2022-12-11T07:03:59.019Z,7.90
2022-12-11T07:08:01.118Z,8.07
2022-12-11T07:12:04.038Z,7.97
2022-12-11T07:16:10.536Z,7.40
2022-12-11T07:20:12.211Z,7.97
2022-12-11T07:24:14.136Z,7.68
2022-12-11T07:28:16.926Z,7.38
2022-12-11T07:32:18.702Z,6.97
2022-12-11T07:36:21.048Z,6.75
2022-12-11T07:40:22.693Z,6.90
2022-12-11T07:44:24.188Z,7.05
2022-12-11T07:48:25.650Z,7.70
2022-12-11T07:52:27.161Z,6.63
2022-12-11T07:56:30.472Z,7.10
2022-12-11T08:00:32.815Z,7.20
2022-12-11T08:04:34.485Z,8.18
2022-12-11T08:08:36.293Z,6.65
2022-12-11T08:12:37.823Z,8.00
2022-12-11T08:16:42.888Z,7.13
2022-12-11T08:20:44.399Z,6.47
2022-12-11T08:24:46.884Z,6.50
2022-12-11T08:28:48.616Z,6.65
2022-12-11T08:32:50.253Z,7.20
2022-12-11T08:36:51.754Z,6.85
2022-12-11T08:40:53.314Z,9.18
2022-12-11T08:44:54.809Z,10.07
2022-12-11T08:48:57.743Z,10.15
2022-12-11T08:52:59.367Z,6.50
2022-12-11T08:57:00.925Z,7.50
2022-12-11T09:01:53.753Z,7.55
2022-12-11T09:05:55.488Z,7.95
2022-12-11T09:09:57.043Z,6.63
2022-12-11T09:14:05.168Z,7.63
2022-12-11T09:18:09.176Z,7.38
2022-12-11T09:22:11.299Z,7.18
2022-12-11T09:26:16.077Z,7.30
2022-12-11T09:30:17.606Z,7.30
2022-12-11T09:34:22.701Z,7.13
2022-12-11T09:38:30.195Z,6.78
2022-12-11T09:43:09.786Z,7.15
2022-12-11T09:47:21.061Z,7.20
2022-12-11T09:51:28.484Z,6.85
2022-12-11T09:55:43.124Z,6.93
2022-12-11T10:00:31.943Z,7.18
2022-12-11T10:05:18.910Z,7.60
2022-12-11T10:09:33.415Z,8.60
2022-12-11T10:14:06.711Z,7.82
2022-12-11T10:18:15.842Z,7.18
2022-12-11T10:22:22.901Z,8.25
2022-12-11T10:26:24.731Z,7.97
2022-12-11T10:30:34.589Z,7.80
2022-12-11T10:34:42.171Z,7.65
2022-12-11T10:38:46.765Z,7.38
2022-12-11T10:42:55.271Z,7.28
2022-12-11T10:47:12.669Z,7.57
2022-12-11T10:51:14.267Z,6.88
2022-12-11T10:55:22.677Z,7.30
2022-12-11T10:59:28.007Z,6.93
2022-12-11T11:03:29.949Z,8.55
2022-12-11T11:07:31.716Z,7.18
2022-12-11T11:11:38.220Z,7.30
2022-12-11T11:15:39.935Z,6.22
2022-12-11T11:19:41.729Z,6.72
2022-12-11T11:23:47.237Z,6.45
2022-12-11T11:27:55.738Z,7.15
2022-12-11T11:32:03.960Z,6.32
2022-12-11T11:36:07.842Z,6.45
2022-12-11T11:40:19.994Z,7.18
2022-12-11T11:45:13.848Z,6.85
2022-12-11T11:49:26.009Z,7.78
2022-12-11T11:59:31.140Z,7.25
2022-12-11T12:03:32.765Z,7.53
2022-12-11T12:13:55.598Z,7.57
2022-12-11T12:18:28.539Z,8.55
2022-12-11T12:22:45.640Z,7.63
2022-12-11T12:27:00.163Z,8.27
2022-12-11T12:31:31.113Z,7.25
2022-12-11T12:35:38.005Z,7.57
2022-12-11T12:39:54.644Z,8.15
2022-12-11T12:44:08.390Z,8.48
2022-12-11T12:48:10.226Z,8.15
2022-12-11T12:52:19.260Z,7.95
2022-12-11T12:56:22.322Z,8.57
2022-12-11T13:00:30.337Z,7.82
2022-12-11T13:09:09.183Z,8.15
2022-12-11T13:13:35.840Z,7.88
2022-12-11T13:17:38.848Z,8.35
2022-12-11T13:21:41.101Z,7.95
2022-12-11T13:25:51.478Z,7.25
2022-12-11T13:30:08.621Z,8.07
2022-12-11T13:34:21.157Z,7.70
2022-12-11T13:38:23.991Z,7.30
2022-12-11T13:42:33.783Z,8.98
2022-12-11T13:46:40.408Z,8.35
2022-12-11T13:50:43.824Z,8.25
2022-12-11T13:54:52.301Z,7.97
2022-12-11T13:58:54.018Z,7.68
2022-12-11T14:02:59.533Z,7.43
2022-12-11T14:07:02.055Z,7.43
2022-12-11T14:11:05.123Z,8.85
2022-12-11T14:15:07.801Z,8.43
2022-12-11T14:19:10.906Z,7.53
2022-12-11T14:23:18.972Z,9.13
2022-12-11T14:27:21.836Z,8.50
2022-12-11T14:31:28.216Z,8.68
2022-12-11T14:35:38.588Z,8.85
2022-12-11T14:39:46.988Z,9.25
2022-12-11T14:43:53.517Z,9.68
2022-12-11T14:47:57.234Z,8.40
2022-12-11T14:52:01.143Z,7.78
2022-12-11T14:56:06.321Z,8.35
2022-12-11T15:00:09.207Z,8.90
2022-12-11T15:04:14.058Z,9.82
2022-12-11T15:08:24.901Z,9.75
2022-12-11T15:12:26.703Z,8.25
2022-12-11T15:16:33.202Z,8.73
2022-12-11T15:20:34.854Z,8.05
2022-12-11T15:24:40.437Z,8.90
2022-12-11T15:28:42.244Z,8.80
2022-12-11T15:32:45.181Z,8.00
2022-12-11T15:36:46.832Z,8.27
2022-12-11T15:40:48.559Z,7.68
2022-12-11T15:44:50.911Z,8.45
2022-12-11T15:48:52.970Z,8.48
2022-12-11T15:52:56.589Z,9.35
2022-12-11T15:57:01.766Z,8.25
2022-12-11T16:01:04.045Z,9.55
2022-12-11T16:05:07.609Z,8.23
2022-12-11T16:09:09.141Z,9.15
2022-12-11T16:13:12.798Z,9.68
2022-12-11T16:17:15.810Z,8.90
2022-12-11T16:21:21.373Z,9.40
2022-12-11T16:25:23.526Z,9.10
2022-12-11T16:29:25.146Z,8.80
2022-12-11T16:33:26.842Z,8.75
2022-12-11T16:37:29.713Z,8.38
2022-12-11T16:41:31.395Z,8.80
2022-12-11T16:45:33.932Z,9.82
2022-12-11T16:49:35.646Z,8.30
2022-12-11T16:53:37.426Z,9.50
2022-12-11T16:57:39.265Z,7.63
2022-12-11T17:01:41.043Z,9.32
2022-12-11T17:05:43.428Z,7.70
2022-12-11T17:09:47.311Z,9.15
2022-12-11T17:13:57.955Z,9.07
2022-12-11T17:17:59.488Z,9.18
2022-12-11T17:22:01.127Z,9.02
2022-12-11T17:26:04.329Z,8.63
2022-12-11T17:30:06.342Z,8.45
2022-12-11T17:34:08.090Z,9.85
2022-12-11T17:38:09.994Z,9.20
2022-12-11T17:42:11.588Z,9.60
2022-12-11T17:46:13.741Z,8.25
2022-12-11T17:50:15.271Z,8.95
2022-12-11T17:54:16.772Z,9.05
2022-12-11T17:58:22.016Z,9.20
2022-12-11T18:02:23.564Z,9.93
2022-12-11T18:06:25.413Z,9.23
2022-12-11T18:10:27.317Z,9.25
2022-12-11T18:14:28.991Z,8.70
2022-12-11T18:18:31.347Z,9.18
2022-12-11T18:22:32.991Z,8.52
2022-12-11T18:26:34.715Z,9.05
2022-12-11T18:30:36.886Z,8.68
2022-12-11T18:34:38.439Z,9.18
2022-12-11T18:38:41.117Z,9.75
2022-12-11T18:42:43.463Z,9.90
2022-12-11T18:46:45.059Z,9.55
2022-12-11T18:50:48.724Z,9.02
2022-12-11T18:54:52.149Z,9.07
2022-12-11T18:58:53.768Z,9.30
2022-12-11T19:03:29.512Z,9.95
2022-12-11T19:08:23.644Z,10.68
2022-12-11T19:12:26.622Z,8.10
2022-12-11T19:16:41.721Z,9.60
2022-12-11T19:21:12.612Z,10.05
2022-12-11T19:25:46.625Z,8.27
2022-12-11T19:29:49.760Z,9.85
2022-12-11T19:33:52.789Z,9.30
2022-12-11T19:37:57.645Z,9.45
2022-12-11T19:41:59.633Z,9.90
2022-12-11T19:46:02.862Z,10.27
2022-12-11T19:50:05.746Z,9.57
2022-12-11T19:54:09.663Z,9.23
2022-12-11T19:58:11.340Z,10.18
2022-12-11T20:02:13.468Z,9.48
2022-12-11T20:06:15.679Z,9.00
2022-12-11T20:10:17.466Z,9.60
2022-12-11T20:14:22.485Z,9.88
2022-12-11T20:19:14.583Z,9.88
2022-12-11T20:24:07.627Z,9.45
2022-12-11T20:28:09.443Z,9.02
2022-12-11T20:32:11.479Z,9.35
2022-12-11T20:36:15.399Z,9.85
2022-12-11T20:40:19.849Z,9.70
2022-12-11T20:44:21.626Z,10.55
2022-12-11T20:48:23.269Z,9.93
2022-12-11T20:52:25.444Z,9.68
2022-12-11T20:56:29.750Z,8.90
2022-12-11T21:00:31.395Z,10.25
2022-12-11T21:04:33.132Z,10.07
2022-12-11T21:08:34.740Z,11.13
2022-12-11T21:12:38.064Z,10.82
2022-12-11T21:16:39.888Z,10.60
2022-12-11T21:21:31.443Z,10.70
2022-12-11T21:25:33.669Z,10.88
2022-12-11T21:29:35.300Z,9.98
2022-12-11T21:33:36.900Z,10.80
2022-12-11T21:37:42.192Z,11.48
2022-12-11T21:41:49.821Z,9.68
2022-12-11T21:46:00.806Z,10.82
2022-12-11T21:50:04.294Z,10.57
2022-12-11T22:05:37.831Z,10.52
2022-12-11T22:09:39.279Z,9.55
2022-12-11T22:13:40.921Z,10.55
2022-12-11T22:17:42.371Z,8.90
2022-12-11T22:21:44.162Z,11.18
2022-12-11T22:25:45.922Z,10.25
2022-12-11T22:29:47.450Z,10.15
2022-12-11T22:33:50.080Z,10.65
2022-12-11T22:37:52.195Z,10.65
2022-12-11T22:41:53.727Z,10.15
2022-12-11T22:45:55.423Z,10.60
2022-12-11T22:49:56.898Z,11.18
2022-12-11T22:53:58.653Z,10.38
2022-12-11T22:58:00.165Z,10.90
2022-12-11T23:02:02.140Z,10.85
2022-12-11T23:06:08.233Z,11.35
2022-12-11T23:10:10.835Z,10.95
2022-12-11T23:14:16.236Z,9.45
2022-12-11T23:18:17.788Z,10.50
2022-12-11T23:22:19.903Z,9.85
2022-12-11T23:26:22.183Z,10.45
2022-12-11T23:30:23.875Z,11.40
2022-12-11T23:34:25.557Z,11.02
2022-12-11T23:38:27.170Z,9.80
2022-12-11T23:42:28.993Z,10.73
2022-12-11T23:46:30.698Z,10.90
2022-12-11T23:50:34.253Z,10.07
2022-12-11T23:54:35.866Z,9.75
2022-12-11T23:58:38.866Z,11.38
